Time;durP1;ratioP1;P1;durP2;ratioP2;P2;SDS_P1;SDS_P2;PMS_P1;PMS_P2;Temp;Humidity;BMP_temperature;BMP_pressure;BME280_temperature;BME280_humidity;BME280_pressure;Samples;Min_cycle;Max_cycle;Signal;HPM_P1;HPM_P2
2022/03/07 00:00:36;;;;;;;13.55;5.45;;;;;;;-0.86;65.92;102726.84;5018735;28;20444;-82
2022/03/07 00:03:02;;;;;;;8.50;5.32;;;;;;;-0.89;66.35;102724.06;5019077;28;20145;-83
2022/03/07 00:05:28;;;;;;;9.77;5.30;;;;;;;-0.90;66.32;102720.56;5053170;28;20044;-82
2022/03/07 00:07:53;;;;;;;10.27;5.65;;;;;;;-0.91;66.24;102728.31;5055201;28;20040;-83
2022/03/07 00:10:19;;;;;;;8.18;5.35;;;;;;;-0.94;66.05;102718.63;5073175;28;20385;-83
2022/03/07 00:12:44;;;;;;;9.07;4.85;;;;;;;-0.97;65.65;102726.25;5055118;28;20032;-83
2022/03/07 00:15:10;;;;;;;8.98;5.18;;;;;;;-0.99;66.49;102720.09;5038160;28;20500;-82
2022/03/07 00:17:36;;;;;;;16.00;6.00;;;;;;;-1.03;66.51;102728.53;5038455;28;20126;-83
2022/03/07 00:20:02;;;;;;;9.80;5.43;;;;;;;-1.06;66.85;102727.44;5054962;28;20051;-83
2022/03/07 00:22:27;;;;;;;12.50;6.13;;;;;;;-1.08;67.16;102728.25;5064079;28;20056;-83
2022/03/07 00:24:53;;;;;;;10.57;5.95;;;;;;;-1.10;67.02;102729.88;5018722;28;20040;-83
2022/03/07 00:27:18;;;;;;;8.98;5.60;;;;;;;-1.11;67.19;102730.69;5034807;28;20397;-83
2022/03/07 00:29:45;;;;;;;9.35;5.80;;;;;;;-1.14;67.01;102738.34;5052798;28;20033;-83
2022/03/07 00:32:10;;;;;;;10.48;5.72;;;;;;;-1.18;67.13;102732.88;5034585;28;20124;-83
2022/03/07 00:34:36;;;;;;;10.80;6.07;;;;;;;-1.19;67.30;102741.47;5052783;28;20533;-83
2022/03/07 00:37:01;;;;;;;12.43;5.72;;;;;;;-1.23;67.32;102739.50;5018147;28;20041;-83
2022/03/07 00:39:27;;;;;;;6.97;5.00;;;;;;;-1.25;67.84;102741.13;5052745;28;20119;-83
2022/03/07 00:41:52;;;;;;;10.20;5.50;;;;;;;-1.26;67.89;102741.91;4985454;28;20037;-82
2022/03/07 00:44:18;;;;;;;9.38;5.47;;;;;;;-1.27;68.42;102741.03;5034421;28;20111;-83
2022/03/07 00:46:43;;;;;;;11.68;5.85;;;;;;;-1.30;67.87;102738.25;5026571;28;20117;-83
2022/03/07 00:49:09;;;;;;;9.10;5.65;;;;;;;-1.33;68.15;102741.56;5030978;28;20056;-83
2022/03/07 00:51:34;;;;;;;11.02;5.72;;;;;;;-1.35;68.15;102740.59;5018981;28;20136;-82
2022/03/07 00:54:01;;;;;;;10.43;6.13;;;;;;;-1.38;68.83;102735.22;5001793;28;20105;-82
2022/03/07 00:56:28;;;;;;;11.43;6.20;;;;;;;-1.38;68.69;102744.72;5034277;28;20037;-83
2022/03/07 00:58:53;;;;;;;8.23;5.70;;;;;;;-1.40;67.78;102748.94;5051077;28;20036;-83
2022/03/07 01:01:19;;;;;;;8.90;6.28;;;;;;;-1.42;67.94;102753.16;5033886;28;20124;-83
2022/03/07 01:03:45;;;;;;;10.65;5.82;;;;;;;-1.44;68.53;102745.25;5046884;28;20091;-83
2022/03/07 01:06:10;;;;;;;8.38;5.75;;;;;;;-1.46;68.88;102749.47;5030560;28;20497;-82
2022/03/07 01:08:36;;;;;;;9.32;6.15;;;;;;;-1.48;69.09;102748.50;4997975;28;20048;-82
2022/03/07 01:11:01;;;;;;;9.23;5.43;;;;;;;-1.55;68.54;102736.84;5030262;28;20429;-82
2022/03/07 01:13:27;;;;;;;10.05;5.85;;;;;;;-1.55;69.07;102754.16;5030670;28;20037;-82
2022/03/07 01:15:53;;;;;;;9.55;6.03;;;;;;;-1.57;69.08;102745.38;5013892;28;20124;-82
2022/03/07 01:18:20;;;;;;;9.15;5.78;;;;;;;-1.59;68.70;102750.47;5030492;28;20061;-83
2022/03/07 01:20:45;;;;;;;10.50;5.88;;;;;;;-1.64;68.67;102746.69;5013922;28;20077;-83
2022/03/07 01:23:11;;;;;;;9.48;5.55;;;;;;;-1.64;68.32;102746.69;5024880;28;20102;-83
2022/03/07 01:25:36;;;;;;;11.48;6.63;;;;;;;-1.64;68.55;102749.28;5030304;28;20037;-83
2022/03/07 01:28:02;;;;;;;10.75;5.53;;;;;;;-1.66;69.04;102747.41;5029988;28;20045;-83
2022/03/07 01:30:27;;;;;;;9.93;5.78;;;;;;;-1.70;68.94;102746.34;5030272;28;20041;-83
2022/03/07 01:32:53;;;;;;;9.82;5.65;;;;;;;-1.70;69.79;102745.47;5013952;28;20088;-82
2022/03/07 01:35:19;;;;;;;10.20;5.60;;;;;;;-1.75;69.09;102743.47;5013565;28;20061;-83
2022/03/07 01:37:45;;;;;;;11.80;6.82;;;;;;;-1.77;69.16;102746.78;5013418;28;20130;-83
2022/03/07 01:40:12;;;;;;;9.50;6.03;;;;;;;-1.80;69.18;102741.44;5030020;28;20099;-83
2022/03/07 01:42:38;;;;;;;8.45;5.25;;;;;;;-1.81;69.24;102747.41;5013457;28;20057;-83
2022/03/07 01:45:15;;;;;;;10.40;6.25;;;;;;;-1.83;69.48;102746.41;5029386;28;20183;-83
2022/03/07 01:47:42;;;;;;;11.10;6.28;;;;;;;-1.84;70.34;102744.63;5031824;28;20064;-82
2022/03/07 01:50:10;;;;;;;16.83;8.88;;;;;;;-1.85;70.71;102741.16;5029823;28;20045;-81
2022/03/07 01:52:39;;;;;;;9.38;5.90;;;;;;;-1.87;70.75;102745.34;5031729;28;20084;-84
2022/03/07 01:55:08;;;;;;;11.93;6.18;;;;;;;-1.89;70.48;102741.75;5029620;28;20035;-84
2022/03/07 01:57:39;;;;;;;10.48;6.30;;;;;;;-1.90;70.35;102746.84;5029718;28;20393;-82
2022/03/07 02:00:08;;;;;;;10.75;6.22;;;;;;;-1.93;70.15;102741.47;5012909;28;20065;-82
2022/03/07 02:02:38;;;;;;;8.35;5.68;;;;;;;-1.94;70.69;102738.00;5030764;28;20128;-81
2022/03/07 02:05:08;;;;;;;9.55;6.13;;;;;;;-1.96;70.75;102735.31;5013231;28;20139;-82
2022/03/07 02:07:33;;;;;;;11.75;6.03;;;;;;;-1.95;69.95;102739.72;5030652;28;20488;-82
2022/03/07 02:10:00;;;;;;;11.82;6.78;;;;;;;-1.97;70.56;102730.94;5029231;28;20048;-83
2022/03/07 02:12:26;;;;;;;13.77;6.85;;;;;;;-1.99;70.53;102734.25;5029326;28;20391;-82
2022/03/07 02:14:52;;;;;;;11.30;6.20;;;;;;;-2.01;70.78;102730.66;5012606;28;20120;-82
2022/03/07 02:17:17;;;;;;;15.32;7.03;;;;;;;-2.04;70.36;102733.06;5028523;28;20588;-82
2022/03/07 02:19:43;;;;;;;11.10;6.57;;;;;;;-2.05;70.72;102723.47;5030718;28;20048;-83
2022/03/07 02:22:10;;;;;;;11.05;6.70;;;;;;;-2.09;71.64;102722.41;5028788;28;20069;-83
2022/03/07 02:24:41;;;;;;;11.90;6.40;;;;;;;-2.12;71.15;102724.81;5029234;28;20048;-83
2022/03/07 02:27:10;;;;;;;13.68;6.25;;;;;;;-2.12;71.00;102731.72;5012672;28;20075;-83
2022/03/07 02:29:36;;;;;;;10.85;6.38;;;;;;;-2.18;71.28;102727.03;5030503;28;20037;-83
2022/03/07 02:32:16;;;;;;;11.43;6.28;;;;;;;-2.18;70.82;102724.44;5028858;28;20068;-83
2022/03/07 02:34:45;;;;;;;11.90;6.45;;;;;;;-2.20;71.20;102718.25;5012858;28;20053;-83
2022/03/07 02:37:13;;;;;;;10.38;6.20;;;;;;;-2.22;71.11;102719.88;5013022;28;20038;-83
2022/03/07 02:39:44;;;;;;;12.23;6.88;;;;;;;-2.21;71.50;102732.03;5013277;28;20033;-83
2022/03/07 02:42:10;;;;;;;11.23;6.93;;;;;;;-2.23;72.30;102726.75;5030209;28;20044;-83
2022/03/07 02:44:35;;;;;;;8.80;5.55;;;;;;;-2.24;71.96;102729.28;5028996;28;20028;-83
2022/03/07 02:47:01;;;;;;;13.15;6.68;;;;;;;-2.25;71.89;102728.38;5031967;28;20050;-83
2022/03/07 02:49:27;;;;;;;11.40;6.60;;;;;;;-2.28;72.14;102722.97;5032353;28;20037;-83
2022/03/07 02:51:52;;;;;;;10.05;6.30;;;;;;;-2.29;71.92;102731.59;5025003;28;20506;-83
2022/03/07 02:54:18;;;;;;;10.85;6.88;;;;;;;-2.31;72.25;102721.91;5029201;28;20055;-84
2022/03/07 02:56:44;;;;;;;11.32;6.60;;;;;;;-2.31;72.87;102720.22;5012208;28;20045;-83
2022/03/07 02:59:11;;;;;;;11.15;7.05;;;;;;;-2.31;72.95;102724.50;5029175;28;20045;-83
2022/03/07 03:01:36;;;;;;;13.20;7.18;;;;;;;-2.32;73.08;102715.84;5012062;28;20419;-84
2022/03/07 03:04:02;;;;;;;10.45;6.63;;;;;;;-2.31;73.05;102719.31;5035517;28;20084;-84
2022/03/07 03:06:29;;;;;;;12.68;7.15;;;;;;;-2.31;73.47;102719.31;5048628;28;20025;-84
2022/03/07 03:08:54;;;;;;;10.15;6.93;;;;;;;-2.33;73.39;102719.22;5048914;28;20041;-83
2022/03/07 03:11:20;;;;;;;10.80;6.95;;;;;;;-2.33;72.99;102716.63;5031972;28;20049;-84
2022/03/07 03:13:45;;;;;;;12.07;7.07;;;;;;;-2.34;73.18;102717.44;5048568;28;20037;-83
2022/03/07 03:16:11;;;;;;;10.70;6.70;;;;;;;-2.34;72.81;102716.56;5049641;28;20441;-84
2022/03/07 03:18:37;;;;;;;14.18;7.22;;;;;;;-2.34;73.51;102711.38;5048534;28;20033;-84
2022/03/07 03:21:02;;;;;;;11.57;7.28;;;;;;;-2.36;74.00;102708.66;5048352;28;20031;-83
2022/03/07 03:23:28;;;;;;;10.73;7.28;;;;;;;-2.33;73.58;102715.72;5028395;28;20037;-84
2022/03/07 03:25:54;;;;;;;9.32;6.85;;;;;;;-2.33;73.75;102716.63;5044911;28;20465;-83
2022/03/07 03:28:20;;;;;;;13.98;7.53;;;;;;;-2.34;73.89;102721.75;5030258;28;20044;-84
2022/03/07 03:30:46;;;;;;;12.15;7.05;;;;;;;-2.31;73.86;102717.63;5015706;28;20068;-84
2022/03/07 03:33:12;;;;;;;12.60;7.57;;;;;;;-2.33;73.98;102720.94;5032478;28;20037;-84
2022/03/07 03:35:37;;;;;;;12.20;7.20;;;;;;;-2.34;74.08;102713.97;5032222;28;20029;-83
2022/03/07 03:38:04;;;;;;;11.55;6.60;;;;;;;-2.35;73.93;102712.16;5032389;28;20508;-84
2022/03/07 03:40:30;;;;;;;14.13;7.78;;;;;;;-2.35;73.84;102727.72;5015669;28;20215;-84
2022/03/07 03:42:55;;;;;;;12.40;7.22;;;;;;;-2.39;73.79;102724.94;5032076;28;20561;-83
2022/03/07 03:45:21;;;;;;;14.98;7.78;;;;;;;-2.38;73.79;102725.81;5032803;28;20029;-84
2022/03/07 03:47:46;;;;;;;11.80;6.85;;;;;;;-2.40;73.62;102717.03;5040338;28;20045;-84
2022/03/07 03:50:13;;;;;;;11.27;6.70;;;;;;;-2.41;72.93;102723.94;5035458;28;20033;-84
2022/03/07 03:52:40;;;;;;;8.38;6.05;;;;;;;-2.42;73.09;102718.69;5038424;28;20116;-84
2022/03/07 03:55:07;;;;;;;11.75;6.60;;;;;;;-2.43;73.36;102722.06;5033405;28;20037;-84
2022/03/07 03:57:32;;;;;;;14.52;6.65;;;;;;;-2.44;73.00;102722.88;5031910;28;20034;-84
2022/03/07 03:59:58;;;;;;;12.68;7.18;;;;;;;-2.46;72.87;102719.28;5031813;28;20038;-84
2022/03/07 04:02:24;;;;;;;9.95;6.78;;;;;;;-2.46;73.53;102727.06;5031740;28;20049;-84
2022/03/07 04:04:50;;;;;;;12.77;6.93;;;;;;;-2.48;73.91;102724.38;5046915;28;20064;-84
2022/03/07 04:07:16;;;;;;;10.63;7.07;;;;;;;-2.51;73.60;102726.78;5051478;28;20543;-84
2022/03/07 04:09:42;;;;;;;14.82;8.07;;;;;;;-2.51;74.12;102724.19;5035010;28;20515;-84
2022/03/07 04:12:08;;;;;;;8.80;6.97;;;;;;;-2.52;73.49;102726.69;5034658;28;20079;-84
2022/03/07 04:14:34;;;;;;;11.60;7.25;;;;;;;-2.54;73.47;102724.00;5034907;28;20090;-84
2022/03/07 04:16:59;;;;;;;12.00;7.78;;;;;;;-2.54;73.07;102730.91;5051509;28;20033;-87
2022/03/07 04:19:25;;;;;;;16.52;7.40;;;;;;;-2.56;74.52;102720.41;5053114;28;20115;-86
2022/03/07 04:21:52;;;;;;;11.98;7.13;;;;;;;-2.55;74.38;102723.91;5047939;28;20477;-84
2022/03/07 04:24:18;;;;;;;10.93;7.43;;;;;;;-2.56;74.46;102716.94;5032057;28;20026;-87
2022/03/07 04:26:44;;;;;;;12.50;6.97;;;;;;;-2.55;74.50;102727.38;5032856;28;20080;-87
2022/03/07 04:29:10;;;;;;;11.48;7.18;;;;;;;-2.54;74.35;102724.00;5032954;28;20045;-85
2022/03/07 04:31:40;;;;;;;10.90;7.05;;;;;;;-2.56;74.45;102723.00;5014708;28;20048;-84
2022/03/07 04:34:07;;;;;;;13.38;7.55;;;;;;;-2.55;74.60;102721.31;5032774;28;20029;-84
2022/03/07 04:36:35;;;;;;;11.35;7.25;;;;;;;-2.54;74.30;102716.22;5014724;28;20032;-84
2022/03/07 04:39:01;;;;;;;11.38;7.25;;;;;;;-2.52;75.17;102724.06;5032550;28;20060;-87
2022/03/07 04:41:27;;;;;;;15.63;8.07;;;;;;;-2.53;74.53;102720.59;5030714;28;20457;-86
2022/03/07 04:43:53;;;;;;;12.13;7.47;;;;;;;-2.53;74.95;102723.19;5014887;28;20041;-87
2022/03/07 04:46:18;;;;;;;13.68;7.45;;;;;;;-2.54;74.04;102730.91;5015900;28;20171;-86
2022/03/07 04:48:44;;;;;;;10.38;7.00;;;;;;;-2.55;74.98;102727.38;5034560;28;20330;-87
2022/03/07 04:51:10;;;;;;;10.50;7.18;;;;;;;-2.58;73.86;102729.78;5035528;28;20039;-87
2022/03/07 04:53:35;;;;;;;13.27;7.60;;;;;;;-2.58;74.60;102728.91;5037539;28;20368;-87
2022/03/07 04:56:00;;;;;;;11.13;7.63;;;;;;;-2.59;74.36;102728.00;5037481;28;20135;-87
2022/03/07 04:58:26;;;;;;;13.82;7.63;;;;;;;-2.63;74.16;102723.44;5053874;28;20032;-85
2022/03/07 05:00:54;;;;;;;13.82;7.63;;;;;;;-2.65;74.34;102720.72;5053677;28;20040;-84
2022/03/07 05:03:21;;;;;;;15.35;7.65;;;;;;;-2.66;74.45;102728.44;5035938;28;20028;-84
2022/03/07 05:05:50;;;;;;;15.88;8.23;;;;;;;-2.67;74.39;102724.03;5068763;28;20460;-84
2022/03/07 05:08:16;;;;;;;13.68;7.60;;;;;;;-2.68;74.24;102722.25;5073753;28;20493;-86
2022/03/07 05:10:42;;;;;;;9.70;7.38;;;;;;;-2.73;74.44;102721.06;5073797;28;20036;-85
2022/03/07 05:13:07;;;;;;;14.13;8.20;;;;;;;-2.78;74.74;102717.28;5073584;28;20028;-85
2022/03/07 05:15:33;;;;;;;12.68;7.95;;;;;;;-2.83;74.45;102717.00;5073504;28;20063;-85
2022/03/07 05:17:59;;;;;;;9.35;6.28;;;;;;;-2.83;73.82;102722.19;5086809;28;20031;-85
2022/03/07 05:20:25;;;;;;;11.55;8.18;;;;;;;-2.86;74.79;102722.91;5072082;28;20460;-87
2022/03/07 05:22:52;;;;;;;11.65;7.22;;;;;;;-2.88;75.04;102716.72;5041450;28;20079;-85
2022/03/07 05:25:20;;;;;;;12.00;8.00;;;;;;;-2.89;75.07;102727.00;5042055;28;20024;-85
2022/03/07 05:27:46;;;;;;;9.95;7.13;;;;;;;-2.91;74.50;102726.88;5071626;28;20036;-86
2022/03/07 05:30:15;;;;;;;10.65;7.72;;;;;;;-2.93;74.74;102723.31;5036579;28;20039;-86
2022/03/07 05:32:46;;;;;;;14.60;8.32;;;;;;;-2.96;74.56;102723.13;5036502;28;20495;-86
2022/03/07 05:35:13;;;;;;;12.85;8.35;;;;;;;-2.94;74.91;102720.59;5037222;28;20131;-85
2022/03/07 05:37:39;;;;;;;14.02;7.93;;;;;;;-2.96;75.37;102730.00;5051263;28;20028;-86
2022/03/07 05:40:06;;;;;;;15.65;8.35;;;;;;;-2.97;76.28;102725.59;5051195;28;20025;-86
2022/03/07 05:42:33;;;;;;;16.15;8.85;;;;;;;-2.99;75.56;102728.13;5033160;28;20048;-86
2022/03/07 05:44:59;;;;;;;12.40;8.77;;;;;;;-2.99;76.08;102715.16;5032673;28;20193;-86
2022/03/07 05:47:24;;;;;;;17.20;9.23;;;;;;;-2.98;76.16;102722.13;5024987;28;20049;-85
2022/03/07 05:49:50;;;;;;;13.32;8.73;;;;;;;-2.95;75.60;102724.91;5013436;28;20033;-86
2022/03/07 05:52:15;;;;;;;12.73;8.45;;;;;;;-2.97;75.17;102730.78;5041074;28;20075;-86
2022/03/07 05:54:41;;;;;;;11.13;8.20;;;;;;;-2.97;75.25;102733.38;5050983;28;20036;-85
2022/03/07 05:57:06;;;;;;;12.13;8.98;;;;;;;-3.00;75.61;102723.72;5033075;28;20039;-86
2022/03/07 05:59:32;;;;;;;14.15;9.25;;;;;;;-2.98;75.41;102737.66;5051122;28;20033;-86
2022/03/07 06:01:58;;;;;;;15.52;9.93;;;;;;;-3.00;75.35;102734.06;5051131;28;20483;-86
2022/03/07 06:04:24;;;;;;;14.00;8.98;;;;;;;-3.00;75.58;102743.56;5022670;28;20037;-86
2022/03/07 06:06:49;;;;;;;15.18;8.23;;;;;;;-3.03;75.70;102742.56;4980554;28;20461;-86
2022/03/07 06:09:15;;;;;;;15.43;9.05;;;;;;;-3.02;75.36;102743.44;4996859;28;20068;-86
2022/03/07 06:11:40;;;;;;;16.52;9.52;;;;;;;-3.04;75.73;102750.25;5012889;28;20029;-86
2022/03/07 06:14:06;;;;;;;14.30;8.27;;;;;;;-3.08;75.19;102756.91;5013038;28;20035;-85
2022/03/07 06:16:31;;;;;;;11.93;8.45;;;;;;;-3.06;75.60;102759.63;5029022;28;20390;-85
2022/03/07 06:18:57;;;;;;;14.13;8.88;;;;;;;-3.10;75.26;102763.69;5029334;28;20118;-86
2022/03/07 06:21:22;;;;;;;15.05;9.20;;;;;;;-3.09;75.79;102773.28;5040727;28;20341;-86
2022/03/07 06:23:48;;;;;;;14.05;9.15;;;;;;;-3.10;75.55;102767.97;5056092;28;20043;-85
2022/03/07 06:26:13;;;;;;;18.00;9.85;;;;;;;-3.10;75.10;102765.41;5040765;28;20087;-85
2022/03/07 06:28:38;;;;;;;12.30;8.73;;;;;;;-3.09;75.62;102764.59;5061992;28;20040;-85
2022/03/07 06:31:04;;;;;;;15.98;9.98;;;;;;;-3.09;76.29;102770.69;5057117;28;20056;-86
2022/03/07 06:33:30;;;;;;;15.88;9.65;;;;;;;-3.09;76.31;102768.09;5062455;28;20047;-85
2022/03/07 06:35:58;;;;;;;13.23;8.73;;;;;;;-3.09;75.65;102773.28;5041550;28;20082;-85
2022/03/07 06:38:24;;;;;;;12.60;8.55;;;;;;;-3.10;75.41;102776.66;5042350;28;20032;-84
2022/03/07 06:40:50;;;;;;;16.67;9.32;;;;;;;-3.06;76.30;102777.75;5043682;28;20032;-84
2022/03/07 06:43:15;;;;;;;13.35;9.40;;;;;;;-3.07;76.17;102782.03;5041968;28;20307;-85
2022/03/07 06:45:40;;;;;;;15.30;9.05;;;;;;;-3.03;76.13;102781.44;5055513;28;20440;-85
2022/03/07 06:48:06;;;;;;;15.55;10.32;;;;;;;-3.00;76.74;102775.56;5040948;28;20405;-84
2022/03/07 06:50:32;;;;;;;16.70;9.45;;;;;;;-2.96;76.03;102787.03;5059534;28;20040;-85
2022/03/07 06:52:58;;;;;;;13.65;8.90;;;;;;;-2.94;76.08;102781.16;5054024;28;20073;-85
2022/03/07 06:55:24;;;;;;;17.73;9.38;;;;;;;-2.91;76.19;102783.03;5059730;28;20108;-85
2022/03/07 06:57:50;;;;;;;16.65;9.82;;;;;;;-2.88;76.39;102776.34;5055105;28;20092;-85
2022/03/07 07:00:16;;;;;;;15.38;9.77;;;;;;;-2.83;76.75;102779.22;5063924;28;20408;-85
2022/03/07 07:02:42;;;;;;;16.88;9.95;;;;;;;-2.78;76.65;102780.41;5071306;28;20386;-85
2022/03/07 07:05:09;;;;;;;19.75;9.80;;;;;;;-2.72;76.74;102779.91;5075030;28;20059;-84
2022/03/07 07:07:35;;;;;;;17.67;10.68;;;;;;;-2.67;77.01;102776.81;5074937;28;20172;-85
2022/03/07 07:10:02;;;;;;;13.15;9.25;;;;;;;-2.62;76.77;102780.59;5073229;28;20039;-85
2022/03/07 07:12:28;;;;;;;14.80;10.07;;;;;;;-2.52;77.12;102773.38;5072676;28;20404;-85
2022/03/07 07:14:53;;;;;;;17.25;10.65;;;;;;;-2.45;77.68;102773.88;5072361;28;20393;-85
2022/03/07 07:17:19;;;;;;;17.35;10.65;;;;;;;-2.37;77.11;102782.13;5056030;28;20044;-85
2022/03/07 07:19:44;;;;;;;15.70;10.65;;;;;;;-2.30;77.44;102775.59;5056313;28;20028;-85
2022/03/07 07:22:10;;;;;;;15.82;11.52;;;;;;;-2.21;77.36;102773.56;5062831;28;20044;-85
2022/03/07 07:24:36;;;;;;;23.40;11.20;;;;;;;-2.12;77.25;102778.44;5016299;28;20084;-86
2022/03/07 07:27:03;;;;;;;18.77;10.90;;;;;;;-2.04;77.30;102778.09;5032834;28;20053;-86
2022/03/07 07:29:28;;;;;;;21.27;11.70;;;;;;;-1.97;77.23;102767.28;5049877;28;20041;-86
2022/03/07 07:31:54;;;;;;;16.83;10.77;;;;;;;-1.85;76.54;102776.63;5016015;28;20033;-86
2022/03/07 07:34:20;;;;;;;16.83;11.23;;;;;;;-1.75;76.60;102776.34;5016137;28;20358;-85
2022/03/07 07:36:46;;;;;;;20.98;10.95;;;;;;;-1.67;76.14;102775.09;5016265;28;20037;-85
2022/03/07 07:39:12;;;;;;;18.92;10.88;;;;;;;-1.56;76.00;102778.31;5032555;28;20033;-85
2022/03/07 07:41:37;;;;;;;20.25;10.85;;;;;;;-1.49;74.95;102783.06;5033589;28;20434;-85
2022/03/07 07:44:03;;;;;;;21.75;10.88;;;;;;;-1.42;75.07;102774.81;5016311;28;20566;-85
2022/03/07 07:46:29;;;;;;;18.65;10.70;;;;;;;-1.28;74.30;102785.16;5018793;28;20042;-85
2022/03/07 07:48:55;;;;;;;15.65;11.52;;;;;;;-1.18;74.96;102787.47;5036416;28;20049;-85
2022/03/07 07:51:20;;;;;;;14.48;11.07;;;;;;;-1.09;74.58;102787.97;5052898;28;20040;-85
2022/03/07 07:53:46;;;;;;;16.98;10.95;;;;;;;-0.98;74.56;102792.09;5036617;28;20035;-84
2022/03/07 07:56:11;;;;;;;18.58;10.77;;;;;;;-0.89;74.27;102787.41;5020146;28;20538;-84
2022/03/07 07:58:37;;;;;;;16.80;10.95;;;;;;;-0.78;74.03;102780.19;5036550;28;20048;-85
2022/03/07 08:01:03;;;;;;;16.25;9.88;;;;;;;-0.64;73.42;102788.78;5035839;28;20033;-84
2022/03/07 08:03:29;;;;;;;16.80;10.65;;;;;;;-0.54;73.55;102784.97;5052561;28;20061;-84
2022/03/07 08:05:55;;;;;;;17.58;11.15;;;;;;;-0.43;73.43;102792.53;5003714;28;20086;-84
2022/03/07 08:08:21;;;;;;;15.90;11.13;;;;;;;-0.32;72.92;102795.72;5020189;28;20035;-84
2022/03/07 08:10:46;;;;;;;16.67;11.68;;;;;;;-0.24;72.47;102790.94;5036630;28;20401;-84
2022/03/07 08:13:12;;;;;;;19.38;11.98;;;;;;;-0.14;72.33;102795.81;5036585;28;20445;-84
2022/03/07 08:15:40;;;;;;;18.92;11.05;;;;;;;-0.04;72.15;102792.88;5035719;28;20501;-83
2022/03/07 08:18:06;;;;;;;21.55;10.77;;;;;;;0.07;71.69;102793.44;5036642;28;20037;-84
2022/03/07 08:20:32;;;;;;;18.95;10.25;;;;;;;0.17;71.29;102794.81;5054074;28;20128;-83
2022/03/07 08:25:27;;;;;;;18.60;10.32;;;;;;;0.37;70.35;102795.84;5012474;23;20068;-79
2022/03/07 08:27:53;;;;;;;19.65;9.73;;;;;;;0.46;70.09;102785.00;4979491;28;20030;-81
2022/03/07 08:30:22;;;;;;;16.75;9.95;;;;;;;0.55;70.16;102781.16;4995710;28;20453;-81
2022/03/07 08:32:47;;;;;;;15.35;10.27;;;;;;;0.68;69.73;102779.16;4995798;28;20034;-78
2022/03/07 08:35:13;;;;;;;19.13;9.65;;;;;;;0.80;69.00;102782.38;4979158;28;20447;-82
2022/03/07 08:37:40;;;;;;;16.85;9.45;;;;;;;0.91;68.07;102781.16;4995082;28;20477;-82
2022/03/07 08:40:07;;;;;;;15.23;10.13;;;;;;;1.04;68.24;102783.56;5013045;28;20354;-82
2022/03/07 08:42:34;;;;;;;14.05;9.35;;;;;;;1.16;67.59;102778.00;5012839;28;20143;-82
2022/03/07 08:44:59;;;;;;;15.02;9.52;;;;;;;1.25;66.99;102778.47;5013103;28;20037;-83
2022/03/07 08:47:25;;;;;;;12.45;8.63;;;;;;;1.36;66.41;102773.75;4978393;28;20104;-83
2022/03/07 08:49:52;;;;;;;12.52;8.35;;;;;;;1.50;65.56;102779.59;4995507;28;20034;-83
2022/03/07 08:52:17;;;;;;;13.52;7.70;;;;;;;1.61;64.35;102782.72;5012815;28;20089;-82
2022/03/07 08:54:44;;;;;;;11.82;7.20;;;;;;;1.68;64.17;102775.25;4978872;28;20474;-81
2022/03/07 08:57:10;;;;;;;10.05;7.18;;;;;;;1.79;62.85;102775.72;4995005;28;20492;-82
2022/03/07 08:59:35;;;;;;;19.63;7.30;;;;;;;1.84;61.91;102761.16;5012691;28;20057;-81
2022/03/07 09:02:02;;;;;;;10.20;7.22;;;;;;;1.94;62.78;102765.06;5012561;28;20038;-82
2022/03/07 09:04:28;;;;;;;11.13;7.30;;;;;;;2.04;62.64;102769.88;4994824;28;20045;-82
2022/03/07 09:06:54;;;;;;;12.65;7.40;;;;;;;2.13;62.57;102767.66;4994708;28;20046;-81
2022/03/07 09:09:19;;;;;;;8.73;6.57;;;;;;;2.21;60.68;102770.59;4994191;28;20033;-82
2022/03/07 09:11:46;;;;;;;12.77;7.40;;;;;;;2.26;59.73;102770.81;4994432;28;20038;-82
2022/03/07 09:14:11;;;;;;;34.55;15.45;;;;;;;2.29;60.32;102768.31;4994636;28;20169;-83
2022/03/07 09:16:37;;;;;;;22.98;11.65;;;;;;;2.35;59.15;102773.84;4977307;28;20137;-81
2022/03/07 09:19:03;;;;;;;16.67;9.23;;;;;;;2.39;59.29;102775.72;4994613;28;20030;-81
2022/03/07 09:21:29;;;;;;;11.63;8.18;;;;;;;2.42;58.57;102768.00;5010731;28;20131;-82
2022/03/07 09:23:54;;;;;;;12.02;7.93;;;;;;;2.45;59.32;102762.94;5011983;28;20505;-81
2022/03/07 09:26:20;;;;;;;13.10;7.97;;;;;;;2.54;59.12;102763.28;5009524;28;20049;-81
2022/03/07 09:28:45;;;;;;;15.82;7.57;;;;;;;2.60;58.42;102757.44;5012036;28;20132;-81
2022/03/07 09:31:11;;;;;;;13.88;7.85;;;;;;;2.72;57.78;102765.81;4980414;28;20033;-81
2022/03/07 09:33:36;;;;;;;9.35;5.53;;;;;;;2.83;57.70;102761.00;5009592;28;20438;-81
2022/03/07 09:36:03;;;;;;;8.95;5.38;;;;;;;2.90;56.34;102760.41;4945280;28;20512;-82
2022/03/07 09:38:34;;;;;;;7.30;5.15;;;;;;;2.96;55.66;102757.16;4993972;28;20018;-81
2022/03/07 09:41:01;;;;;;;7.80;5.20;;;;;;;3.05;56.38;102761.88;5011091;28;20117;-81
2022/03/07 09:43:26;;;;;;;11.07;5.43;;;;;;;3.12;55.97;102754.31;4993511;28;20034;-81
2022/03/07 09:45:52;;;;;;;7.55;5.65;;;;;;;3.20;55.90;102758.13;5010284;28;20540;-81
2022/03/07 09:48:20;;;;;;;13.82;5.68;;;;;;;3.34;54.69;102749.88;4993403;28;20379;-81
2022/03/07 09:50:46;;;;;;;10.88;5.35;;;;;;;3.43;55.25;102747.63;4977685;28;20036;-81
2022/03/07 09:53:13;;;;;;;7.63;5.07;;;;;;;3.51;54.02;102743.59;4960317;28;20046;-81
2022/03/07 09:55:39;;;;;;;8.02;4.97;;;;;;;3.58;54.13;102740.34;4993248;28;20088;-81
2022/03/07 09:58:06;;;;;;;7.90;4.82;;;;;;;3.67;53.03;102742.44;4961380;28;20386;-82
2022/03/07 10:00:32;;;;;;;7.97;5.53;;;;;;;3.78;54.07;102741.06;4993533;28;20345;-81
2022/03/07 10:03:13;;;;;;;10.52;4.95;;;;;;;3.92;53.43;102744.22;4976761;28;20115;-82
2022/03/07 10:05:45;;;;;;;7.40;5.07;;;;;;;3.97;52.48;102732.16;4991728;28;20038;-81
2022/03/07 10:08:21;;;;;;;6.60;4.68;;;;;;;4.00;52.24;102740.13;4974045;28;20034;-82
2022/03/07 10:10:48;;;;;;;6.63;4.63;;;;;;;4.08;50.63;102722.97;4974051;28;20038;-82
2022/03/07 10:13:14;;;;;;;5.63;4.40;;;;;;;4.17;51.96;102729.34;4974254;28;20214;-81
2022/03/07 10:15:41;;;;;;;10.35;5.10;;;;;;;4.27;50.72;102734.06;4991552;28;20414;-81
2022/03/07 10:18:20;;;;;;;6.07;4.43;;;;;;;4.36;50.87;102720.41;4973938;28;20034;-82
2022/03/07 10:20:58;;;;;;;7.70;4.47;;;;;;;4.55;51.09;102729.75;4973938;28;20034;-81
2022/03/07 10:23:27;;;;;;;11.38;4.28;;;;;;;4.66;49.25;102728.38;4990021;28;20058;-81
2022/03/07 10:26:07;;;;;;;7.97;4.60;;;;;;;4.71;50.44;102722.44;4992420;28;20053;-81
2022/03/07 10:28:35;;;;;;;6.85;4.63;;;;;;;4.85;48.65;102724.63;5026125;28;20489;-81
2022/03/07 10:31:12;;;;;;;10.27;4.82;;;;;;;4.89;49.71;102714.25;5025944;28;20026;-82
2022/03/07 10:33:38;;;;;;;9.20;4.50;;;;;;;5.01;49.14;102723.38;4993626;28;20437;-81
2022/03/07 10:36:03;;;;;;;7.70;4.75;;;;;;;5.11;49.33;102707.94;5020840;28;20041;-81
2022/03/07 10:38:29;;;;;;;5.72;4.10;;;;;;;5.16;48.53;102706.34;4993224;28;20038;-82
2022/03/07 10:40:55;;;;;;;6.10;3.90;;;;;;;5.28;47.68;102702.31;4977399;28;20072;-82
2022/03/07 10:43:22;;;;;;;6.55;4.15;;;;;;;5.40;48.49;102700.03;5009837;28;20073;-81
2022/03/07 10:45:56;;;;;;;6.65;4.20;;;;;;;5.48;47.05;102684.50;4993263;28;20030;-81
2022/03/07 10:48:25;;;;;;;7.15;4.40;;;;;;;5.52;47.41;102681.13;5025633;28;20108;-81
2022/03/07 10:50:55;;;;;;;7.38;4.30;;;;;;;5.67;47.94;102680.66;5009516;28;20049;-80
2022/03/07 10:53:22;;;;;;;5.47;3.90;;;;;;;5.79;46.91;102673.13;5009094;28;20069;-82
2022/03/07 10:55:59;;;;;;;6.90;4.10;;;;;;;5.95;48.05;102671.81;5009415;28;20132;-81
2022/03/07 10:58:27;;;;;;;7.85;4.50;;;;;;;6.08;47.20;102662.50;5010187;28;20048;-81
2022/03/07 11:00:54;;;;;;;7.65;4.18;;;;;;;6.13;46.35;102666.13;5008214;28;20034;-81
2022/03/07 11:03:31;;;;;;;6.70;3.90;;;;;;;6.24;46.87;102652.41;5007965;28;20099;-81
2022/03/07 11:05:58;;;;;;;9.57;3.83;;;;;;;6.30;44.98;102656.91;5009840;28;20038;-81
2022/03/07 11:08:24;;;;;;;6.05;4.03;;;;;;;6.39;45.32;102651.00;4993651;28;20034;-82
2022/03/07 11:10:53;;;;;;;5.90;4.00;;;;;;;6.53;45.30;102648.69;4993190;28;20046;-81
2022/03/07 11:13:26;;;;;;;11.23;3.78;;;;;;;6.58;44.49;102640.06;5011103;28;20485;-82
2022/03/07 11:15:57;;;;;;;5.78;4.22;;;;;;;6.65;44.49;102654.25;4991513;28;20038;-82
2022/03/07 11:18:23;;;;;;;6.35;4.20;;;;;;;6.71;45.50;102643.88;5006402;28;20070;-83